Time;durP1;ratioP1;P1;durP2;ratioP2;P2;SDS_P1;SDS_P2;PMS_P1;PMS_P2;Temp;Humidity;BMP_temperature;BMP_pressure;BME280_temperature;BME280_humidity;BME280_pressure;Samples;Min_cycle;Max_cycle;Signal;HPM_P1;HPM_P2
2021/04/02 00:01:37;;;;;;;8.53;5.80;;;;;;;;;;5015477;28;20266;-51
2021/04/02 00:04:03;;;;;;;7.70;6.67;;;;;;;;;;5017125;28;20431;-51
2021/04/02 00:06:29;;;;;;;10.00;7.60;;;;;;;;;;5016215;28;20407;-51
2021/04/02 00:08:55;;;;;;;12.73;6.90;;;;;;;;;;5015867;28;20486;-51
2021/04/02 00:11:21;;;;;;;10.20;6.83;;;;;;;;;;5016098;28;20399;-52
2021/04/02 00:13:48;;;;;;;11.63;6.27;;;;;;;;;;5015523;28;20833;-51
2021/04/02 00:16:15;;;;;;;9.13;7.40;;;;;;;;;;5016537;28;20769;-52
2021/04/02 00:18:41;;;;;;;8.75;6.75;;;;;;;;;;5016233;28;20172;-51
2021/04/02 00:21:08;;;;;;;11.88;6.10;;;;;;;;;;5014653;28;20194;-51
2021/04/02 00:23:38;;;;;;;11.52;5.72;;;;;;;;;;5015908;28;20200;-52
2021/04/02 00:26:14;;;;;;;10.18;6.35;;;;;;;;;;5015726;28;20719;-51
2021/04/02 00:28:40;;;;;;;11.23;6.60;;;;;;;;;;5016658;28;20172;-51
2021/04/02 00:31:06;;;;;;;9.82;7.35;;;;;;;;;;5015933;28;20689;-51
2021/04/02 00:33:33;;;;;;;12.52;7.60;;;;;;;;;;5015296;28;20756;-51
2021/04/02 00:36:00;;;;;;;10.88;6.30;;;;;;;;;;5014792;28;20169;-51
2021/04/02 00:38:26;;;;;;;9.98;7.07;;;;;;;;;;5013549;28;20176;-51
2021/04/02 00:40:57;;;;;;;10.98;6.30;;;;;;;;;;5015294;28;20578;-53
2021/04/02 00:43:27;;;;;;;10.63;7.20;;;;;;;;;;5014731;28;20231;-51
2021/04/02 00:45:53;;;;;;;9.85;8.65;;;;;;;;;;5014855;28;20173;-52
2021/04/02 00:48:19;;;;;;;10.00;6.40;;;;;;;;;;5014353;28;20180;-53
2021/04/02 00:50:51;;;;;;;14.07;7.13;;;;;;;;;;5012905;28;20415;-51
2021/04/02 00:53:18;;;;;;;12.00;7.72;;;;;;;;;;5014543;28;20455;-52
2021/04/02 00:55:44;;;;;;;10.85;7.18;;;;;;;;;;5013845;28;20667;-53
2021/04/02 00:58:11;;;;;;;19.25;7.38;;;;;;;;;;5012586;28;20172;-52
2021/04/02 01:00:37;;;;;;;8.70;6.38;;;;;;;;;;5013492;28;20160;-52
2021/04/02 01:03:04;;;;;;;12.57;7.43;;;;;;;;;;5013584;28;20191;-52
2021/04/02 01:05:31;;;;;;;8.57;6.55;;;;;;;;;;5013851;28;20396;-51
2021/04/02 01:07:59;;;;;;;7.25;6.30;;;;;;;;;;5012849;28;20177;-50
2021/04/02 01:10:26;;;;;;;9.90;7.25;;;;;;;;;;5012867;28;20184;-51
2021/04/02 01:12:57;;;;;;;16.88;7.60;;;;;;;;;;5012675;28;20608;-51
2021/04/02 01:15:46;;;;;;;11.38;7.53;;;;;;;;;;5013817;28;20176;-52
2021/04/02 01:18:15;;;;;;;8.30;6.72;;;;;;;;;;5005623;28;20278;-52
2021/04/02 01:20:41;;;;;;;10.52;7.57;;;;;;;;;;5013545;28;20830;-53
2021/04/02 01:23:11;;;;;;;11.32;6.95;;;;;;;;;;5013456;28;20202;-51
2021/04/02 01:25:40;;;;;;;6.95;6.05;;;;;;;;;;5014368;28;20172;-51
2021/04/02 01:28:11;;;;;;;9.85;7.22;;;;;;;;;;5013994;28;20258;-51
2021/04/02 01:30:38;;;;;;;10.70;7.38;;;;;;;;;;5014962;28;20189;-51
2021/04/02 01:33:04;;;;;;;9.18;7.30;;;;;;;;;;5014825;28;20180;-51
2021/04/02 01:35:35;;;;;;;15.02;8.10;;;;;;;;;;5014513;28;20525;-51
2021/04/02 01:38:01;;;;;;;10.07;7.30;;;;;;;;;;5013636;28;20179;-51
2021/04/02 01:40:28;;;;;;;9.20;7.53;;;;;;;;;;5013816;28;20168;-51
2021/04/02 01:42:55;;;;;;;13.00;6.43;;;;;;;;;;5015558;28;20443;-51
2021/04/02 01:45:22;;;;;;;10.00;7.85;;;;;;;;;;5015912;28;20628;-51
2021/04/02 01:47:48;;;;;;;9.40;7.03;;;;;;;;;;5015216;28;20255;-51
2021/04/02 01:50:15;;;;;;;10.02;7.50;;;;;;;;;;5015267;28;20647;-51
2021/04/02 01:52:42;;;;;;;10.10;7.13;;;;;;;;;;5014833;28;20242;-51
2021/04/02 01:55:09;;;;;;;12.52;7.20;;;;;;;;;;5014916;28;20207;-52
2021/04/02 01:57:37;;;;;;;12.93;7.13;;;;;;;;;;5015209;28;20195;-51
2021/04/02 02:00:07;;;;;;;11.80;7.13;;;;;;;;;;5015079;28;20169;-51
2021/04/02 02:02:33;;;;;;;9.05;7.10;;;;;;;;;;5014957;28;20184;-51
2021/04/02 02:05:00;;;;;;;9.18;7.25;;;;;;;;;;5015377;28;20177;-51
2021/04/02 02:07:26;;;;;;;10.27;8.00;;;;;;;;;;5014194;28;20204;-51
2021/04/02 02:09:53;;;;;;;12.50;7.95;;;;;;;;;;5015347;28;20166;-51
2021/04/02 02:12:20;;;;;;;12.85;7.38;;;;;;;;;;5016365;28;20256;-51
2021/04/02 02:14:48;;;;;;;13.88;7.70;;;;;;;;;;5019573;28;20633;-51
2021/04/02 02:17:18;;;;;;;10.90;8.20;;;;;;;;;;5019291;28;20171;-51
2021/04/02 02:19:45;;;;;;;11.63;7.60;;;;;;;;;;5019472;28;20174;-51
2021/04/02 02:22:11;;;;;;;14.05;7.65;;;;;;;;;;5019719;28;20268;-51
2021/04/02 02:24:38;;;;;;;11.95;8.10;;;;;;;;;;5019097;28;20237;-50
2021/04/02 02:27:07;;;;;;;11.20;8.70;;;;;;;;;;5018920;28;20187;-51
2021/04/02 02:29:34;;;;;;;13.30;8.13;;;;;;;;;;5018904;28;20181;-51
2021/04/02 02:32:01;;;;;;;12.90;9.00;;;;;;;;;;5018222;28;20658;-51
2021/04/02 02:34:27;;;;;;;21.20;9.00;;;;;;;;;;5017687;28;20231;-52
2021/04/02 02:36:53;;;;;;;11.25;8.05;;;;;;;;;;5017996;28;20764;-52
2021/04/02 02:39:19;;;;;;;11.97;8.63;;;;;;;;;;5017217;28;20247;-51
2021/04/02 02:41:46;;;;;;;14.27;8.05;;;;;;;;;;5017861;28;20526;-51
2021/04/02 02:44:12;;;;;;;11.00;8.35;;;;;;;;;;5018051;28;20180;-51
2021/04/02 02:46:38;;;;;;;13.38;8.80;;;;;;;;;;5017424;28;20200;-51
2021/04/02 02:49:16;;;;;;;10.32;8.10;;;;;;;;;;5017397;28;20251;-51
2021/04/02 02:51:43;;;;;;;15.93;8.75;;;;;;;;;;5017458;28;20222;-51
2021/04/02 02:54:10;;;;;;;12.65;7.72;;;;;;;;;;5017378;28;20206;-51
2021/04/02 02:56:37;;;;;;;14.82;8.90;;;;;;;;;;5017934;28;20603;-52
2021/04/02 02:59:06;;;;;;;16.77;8.55;;;;;;;;;;5016574;28;20202;-51
2021/04/02 03:01:34;;;;;;;12.77;7.75;;;;;;;;;;5017136;28;20199;-51
2021/04/02 03:04:01;;;;;;;11.45;8.40;;;;;;;;;;5017876;28;20708;-51
2021/04/02 03:06:28;;;;;;;10.40;7.50;;;;;;;;;;5018029;28;20176;-51
2021/04/02 03:08:55;;;;;;;9.93;8.15;;;;;;;;;;5017418;28;20235;-50
2021/04/02 03:11:22;;;;;;;13.02;8.95;;;;;;;;;;5017384;28;20255;-52
2021/04/02 03:13:49;;;;;;;13.57;8.98;;;;;;;;;;5016359;28;20901;-51
2021/04/02 03:16:15;;;;;;;14.77;8.90;;;;;;;;;;5016145;28;20190;-51
2021/04/02 03:18:42;;;;;;;19.15;8.73;;;;;;;;;;5017342;28;20707;-52
2021/04/02 03:21:09;;;;;;;16.30;9.02;;;;;;;;;;5018069;28;20735;-51
2021/04/02 03:23:36;;;;;;;10.73;8.80;;;;;;;;;;5017829;28;20259;-51
2021/04/02 03:26:02;;;;;;;13.77;9.27;;;;;;;;;;5017538;28;20206;-52
2021/04/02 03:28:29;;;;;;;14.25;8.52;;;;;;;;;;5017216;28;20180;-51
2021/04/02 03:30:55;;;;;;;18.85;8.20;;;;;;;;;;5017141;28;20172;-52
2021/04/02 03:33:26;;;;;;;18.80;9.13;;;;;;;;;;5017643;28;20767;-51
2021/04/02 03:35:55;;;;;;;21.08;9.60;;;;;;;;;;5016460;28;20179;-51
2021/04/02 03:38:22;;;;;;;12.85;9.45;;;;;;;;;;5016523;28;20180;-51
2021/04/02 03:40:49;;;;;;;11.90;8.10;;;;;;;;;;5018254;28;20167;-51
2021/04/02 03:43:15;;;;;;;10.88;9.32;;;;;;;;;;5017782;28;20607;-48
2021/04/02 03:45:41;;;;;;;15.35;9.35;;;;;;;;;;5018249;28;20168;-51
2021/04/02 03:48:09;;;;;;;11.10;8.93;;;;;;;;;;5017205;28;20191;-51
2021/04/02 03:50:38;;;;;;;11.38;9.27;;;;;;;;;;5017966;28;20192;-51
2021/04/02 03:53:03;;;;;;;17.42;9.90;;;;;;;;;;5017761;28;20185;-51
2021/04/02 03:55:30;;;;;;;15.57;9.47;;;;;;;;;;5017893;28;20187;-52
2021/04/02 03:57:58;;;;;;;17.92;9.18;;;;;;;;;;5018408;28;20446;-53
2021/04/02 04:00:30;;;;;;;16.33;9.82;;;;;;;;;;5017457;28;20168;-51
2021/04/02 04:02:56;;;;;;;13.30;7.90;;;;;;;;;;5016611;28;20683;-51
2021/04/02 04:05:23;;;;;;;22.05;10.68;;;;;;;;;;5016500;28;20172;-51
2021/04/02 04:07:50;;;;;;;19.83;11.20;;;;;;;;;;5015533;28;20188;-52
2021/04/02 04:10:17;;;;;;;18.02;10.18;;;;;;;;;;5017022;28;20195;-51
2021/04/02 04:12:44;;;;;;;16.27;10.05;;;;;;;;;;5018379;28;20216;-51
2021/04/02 04:15:14;;;;;;;23.58;11.25;;;;;;;;;;5017566;28;20214;-51
2021/04/02 04:17:41;;;;;;;21.80;9.98;;;;;;;;;;5016898;28;20168;-52
2021/04/02 04:20:08;;;;;;;20.10;10.00;;;;;;;;;;5019317;28;20164;-53
2021/04/02 04:22:36;;;;;;;16.40;10.35;;;;;;;;;;5016772;28;20191;-51
2021/04/02 04:25:02;;;;;;;21.55;9.98;;;;;;;;;;5015627;28;20597;-51
2021/04/02 04:27:29;;;;;;;18.00;9.48;;;;;;;;;;5015146;28;20659;-50
2021/04/02 04:29:56;;;;;;;16.00;10.35;;;;;;;;;;5015699;28;20172;-52
2021/04/02 04:32:24;;;;;;;21.98;11.55;;;;;;;;;;5015688;28;20247;-51
2021/04/02 04:34:50;;;;;;;17.58;10.50;;;;;;;;;;5014228;28;20270;-52
2021/04/02 04:37:20;;;;;;;17.05;11.70;;;;;;;;;;5015155;28;20206;-51
2021/04/02 04:39:47;;;;;;;17.85;10.98;;;;;;;;;;5016463;28;20176;-51
2021/04/02 04:42:14;;;;;;;17.13;10.65;;;;;;;;;;5016756;28;20215;-51
2021/04/02 04:44:41;;;;;;;18.08;10.50;;;;;;;;;;5016673;28;20183;-51
2021/04/02 04:47:07;;;;;;;16.83;10.70;;;;;;;;;;5016998;28;20191;-52
2021/04/02 04:49:33;;;;;;;27.03;10.80;;;;;;;;;;5016255;28;20169;-51
2021/04/02 04:52:00;;;;;;;25.20;10.80;;;;;;;;;;5015842;28;20426;-51
2021/04/02 04:54:27;;;;;;;20.52;11.07;;;;;;;;;;5014273;28;20295;-51
2021/04/02 04:56:54;;;;;;;24.23;11.15;;;;;;;;;;5014580;28;20167;-51
2021/04/02 04:59:21;;;;;;;18.92;9.90;;;;;;;;;;5016353;28;20218;-51
2021/04/02 05:01:48;;;;;;;15.65;10.30;;;;;;;;;;5016728;28;20214;-51
2021/04/02 05:04:15;;;;;;;15.68;10.35;;;;;;;;;;5016262;28;20545;-51
2021/04/02 05:06:41;;;;;;;17.60;10.30;;;;;;;;;;5015238;28;20550;-51
2021/04/02 05:09:08;;;;;;;19.83;10.48;;;;;;;;;;5013680;28;20187;-51
2021/04/02 05:11:36;;;;;;;16.33;10.77;;;;;;;;;;5015629;28;20652;-51
2021/04/02 05:14:02;;;;;;;21.98;10.55;;;;;;;;;;5017106;28;20283;-51
2021/04/02 05:16:30;;;;;;;23.90;9.70;;;;;;;;;;5019271;28;20168;-51
2021/04/02 05:18:58;;;;;;;24.70;10.02;;;;;;;;;;5019429;28;20252;-51
2021/04/02 05:21:24;;;;;;;19.88;11.15;;;;;;;;;;5020201;28;20172;-52
2021/04/02 05:23:50;;;;;;;22.47;12.73;;;;;;;;;;5018088;28;20183;-52
2021/04/02 05:26:16;;;;;;;21.92;11.10;;;;;;;;;;5019322;28;20411;-51
2021/04/02 05:28:42;;;;;;;15.43;11.85;;;;;;;;;;5017568;28;20164;-51
2021/04/02 05:31:08;;;;;;;26.85;11.85;;;;;;;;;;5017577;28;20761;-53
2021/04/02 05:33:34;;;;;;;18.70;12.90;;;;;;;;;;5019048;28;20676;-52
2021/04/02 05:36:01;;;;;;;20.92;12.95;;;;;;;;;;5018275;28;20176;-51
2021/04/02 05:38:27;;;;;;;21.50;12.48;;;;;;;;;;5016412;28;20173;-52
2021/04/02 05:40:53;;;;;;;21.60;12.43;;;;;;;;;;5016684;28;20187;-51
2021/04/02 05:43:21;;;;;;;19.63;13.00;;;;;;;;;;5015457;28;20427;-51
2021/04/02 05:45:48;;;;;;;15.68;10.63;;;;;;;;;;5016221;28;20422;-51
2021/04/02 05:48:15;;;;;;;19.30;11.95;;;;;;;;;;5021014;28;20171;-51
2021/04/02 05:50:41;;;;;;;16.13;10.18;;;;;;;;;;5020424;28;20182;-50
2021/04/02 05:53:10;;;;;;;21.02;11.52;;;;;;;;;;5020319;28;20184;-50
2021/04/02 05:55:45;;;;;;;19.70;11.00;;;;;;;;;;5019769;28;20191;-50
2021/04/02 05:58:12;;;;;;;20.55;12.95;;;;;;;;;;5019486;28;20226;-51
2021/04/02 06:00:39;;;;;;;21.40;12.38;;;;;;;;;;5020112;28;20259;-51
2021/04/02 06:03:05;;;;;;;17.10;10.70;;;;;;;;;;5022090;28;20679;-54
2021/04/02 06:05:32;;;;;;;16.30;11.82;;;;;;;;;;5022440;28;20164;-52
2021/04/02 06:07:58;;;;;;;21.05;12.07;;;;;;;;;;5018807;28;20239;-51
2021/04/02 06:10:26;;;;;;;18.98;11.50;;;;;;;;;;5018876;28;20808;-52
2021/04/02 06:12:53;;;;;;;16.83;11.50;;;;;;;;;;5020133;28;20718;-51
2021/04/02 06:15:19;;;;;;;20.23;11.65;;;;;;;;;;5018274;28;20211;-52
2021/04/02 06:18:03;;;;;;;21.27;12.30;;;;;;;;;;5018538;28;20640;-51
2021/04/02 06:20:39;;;;;;;15.60;11.10;;;;;;;;;;5019539;28;20270;-51
2021/04/02 06:23:07;;;;;;;19.55;11.23;;;;;;;;;;5017881;28;20197;-51
2021/04/02 06:25:34;;;;;;;21.88;11.90;;;;;;;;;;5016992;28;20192;-53
2021/04/02 06:28:00;;;;;;;27.27;12.70;;;;;;;;;;5016561;28;20649;-52
2021/04/02 06:30:29;;;;;;;16.25;10.90;;;;;;;;;;5016484;28;20172;-52
2021/04/02 06:32:55;;;;;;;24.80;12.23;;;;;;;;;;5016291;28;20226;-52
2021/04/02 06:35:26;;;;;;;22.15;11.27;;;;;;;;;;5015838;28;20192;-52
2021/04/02 06:37:55;;;;;;;21.85;12.45;;;;;;;;;;5015781;28;20512;-51
2021/04/02 06:40:22;;;;;;;34.45;10.73;;;;;;;;;;5015269;28;20659;-51
2021/04/02 06:42:49;;;;;;;14.43;10.35;;;;;;;;;;5016667;28;20239;-52
2021/04/02 06:45:16;;;;;;;20.52;11.45;;;;;;;;;;5016302;28;20197;-52
2021/04/02 06:47:43;;;;;;;21.55;11.45;;;;;;;;;;5015911;28;20215;-51
2021/04/02 06:50:20;;;;;;;26.10;11.75;;;;;;;;;;5016652;28;20248;-51
2021/04/02 06:52:51;;;;;;;15.70;10.05;;;;;;;;;;5016111;28;20204;-51
2021/04/02 06:55:17;;;;;;;17.77;10.95;;;;;;;;;;5014780;28;20203;-52
2021/04/02 06:57:49;;;;;;;20.23;10.63;;;;;;;;;;5013970;28;20187;-51
2021/04/02 07:00:22;;;;;;;21.58;11.05;;;;;;;;;;5014835;28;20223;-52
2021/04/02 07:02:50;;;;;;;20.75;10.80;;;;;;;;;;5013396;28;20199;-52
2021/04/02 07:05:17;;;;;;;16.17;9.95;;;;;;;;;;5013332;28;20215;-52
2021/04/02 07:07:45;;;;;;;21.52;10.50;;;;;;;;;;5012758;28;20217;-52
2021/04/02 07:10:12;;;;;;;17.17;10.25;;;;;;;;;;5011616;28;20280;-51
2021/04/02 07:12:39;;;;;;;18.42;11.40;;;;;;;;;;5012768;28;20191;-52
2021/04/02 07:15:05;;;;;;;17.67;10.73;;;;;;;;;;5012368;28;20218;-51
2021/04/02 07:17:32;;;;;;;16.98;11.57;;;;;;;;;;5013057;28;20168;-52
2021/04/02 07:20:04;;;;;;;16.92;11.15;;;;;;;;;;5013233;28;20164;-53
2021/04/02 07:22:31;;;;;;;26.10;10.52;;;;;;;;;;5012986;28;20188;-52
2021/04/02 07:24:59;;;;;;;15.75;10.85;;;;;;;;;;5013096;28;20176;-52
2021/04/02 07:27:27;;;;;;;11.25;9.07;;;;;;;;;;5012880;28;20180;-52
2021/04/02 07:29:53;;;;;;;18.65;9.23;;;;;;;;;;5012933;28;20169;-53
2021/04/02 07:32:20;;;;;;;19.67;9.43;;;;;;;;;;5012744;28;20594;-52
2021/04/02 07:34:46;;;;;;;15.00;8.75;;;;;;;;;;5012631;28;20200;-53
2021/04/02 07:37:12;;;;;;;17.35;8.98;;;;;;;;;;5012669;28;20221;-52
2021/04/02 07:39:40;;;;;;;16.35;8.85;;;;;;;;;;5011547;28;20714;-52
2021/04/02 07:42:07;;;;;;;13.27;9.25;;;;;;;;;;5012494;28;20207;-53
2021/04/02 07:44:39;;;;;;;17.70;9.75;;;;;;;;;;5012673;28;20168;-52
2021/04/02 07:47:09;;;;;;;21.60;9.70;;;;;;;;;;5011612;28;20176;-52
2021/04/02 07:49:39;;;;;;;16.05;10.15;;;;;;;;;;5012642;28;20222;-53
2021/04/02 07:52:05;;;;;;;11.80;9.73;;;;;;;;;;5012752;28;20191;-52
2021/04/02 07:54:36;;;;;;;12.65;9.30;;;;;;;;;;5012387;28;20192;-52
2021/04/02 07:57:21;;;;;;;16.25;9.48;;;;;;;;;;5012616;28;20196;-52
2021/04/02 07:59:48;;;;;;;15.43;10.00;;;;;;;;;;5012305;28;20178;-52
2021/04/02 08:02:15;;;;;;;21.50;8.85;;;;;;;;;;5012291;28;20192;-52
2021/04/02 08:04:43;;;;;;;14.88;9.48;;;;;;;;;;5012338;28;20210;-52
2021/04/02 08:07:16;;;;;;;14.20;9.70;;;;;;;;;;5012248;28;20181;-53
2021/04/02 08:09:48;;;;;;;17.00;9.23;;;;;;;;;;5010313;28;20267;-53
2021/04/02 08:12:16;;;;;;;13.82;10.13;;;;;;;;;;5012182;28;20188;-54
2021/04/02 08:14:47;;;;;;;14.43;9.43;;;;;;;;;;5012069;28;20287;-53
2021/04/02 08:17:13;;;;;;;10.48;8.40;;;;;;;;;;5011437;28;20172;-53
2021/04/02 08:19:41;;;;;;;23.45;9.10;;;;;;;;;;5011708;28;20176;-53
2021/04/02 08:22:08;;;;;;;16.23;9.15;;;;;;;;;;5011900;28;20187;-53
2021/04/02 08:24:36;;;;;;;21.05;9.10;;;;;;;;;;5011898;28;20541;-52
2021/04/02 08:27:03;;;;;;;14.07;9.05;;;;;;;;;;5011923;28;20617;-52
2021/04/02 08:29:30;;;;;;;19.15;9.60;;;;;;;;;;5011564;28;20188;-52
2021/04/02 08:32:04;;;;;;;16.33;10.30;;;;;;;;;;5107275;27;20573;-51
2021/04/02 08:34:30;;;;;;;15.57;10.23;;;;;;;;;;5078760;28;20595;-52
2021/04/02 08:36:57;;;;;;;12.77;8.48;;;;;;;;;;5087964;28;20226;-52
2021/04/02 08:39:24;;;;;;;15.30;9.00;;;;;;;;;;5087919;28;20202;-52
2021/04/02 08:41:56;;;;;;;14.52;9.15;;;;;;;;;;5087898;28;20676;-51
2021/04/02 08:44:48;;;;;;;16.00;9.98;;;;;;;;;;5088005;28;20170;-52
2021/04/02 08:47:18;;;;;;;12.50;8.65;;;;;;;;;;5084340;28;20290;-52
2021/04/02 08:49:52;;;;;;;14.45;9.05;;;;;;;;;;5087691;28;20680;-52
2021/04/02 08:52:20;;;;;;;14.32;10.02;;;;;;;;;;5087742;28;20572;-52
2021/04/02 08:54:46;;;;;;;18.23;9.85;;;;;;;;;;5087862;28;20178;-52
2021/04/02 08:57:14;;;;;;;15.27;9.60;;;;;;;;;;5087686;28;20212;-52
2021/04/02 08:59:42;;;;;;;12.38;9.70;;;;;;;;;;5079284;28;20575;-52
2021/04/02 09:02:09;;;;;;;13.10;9.80;;;;;;;;;;5085971;28;20198;-53
2021/04/02 09:04:35;;;;;;;15.37;8.47;;;;;;;;;;5086692;28;20415;-53
2021/04/02 09:07:01;;;;;;;11.43;7.67;;;;;;;;;;5087459;28;20410;-53
2021/04/02 09:09:29;;;;;;;12.83;8.13;;;;;;;;;;5086965;28;20402;-52
2021/04/02 09:11:55;;;;;;;13.95;8.35;;;;;;;;;;5086459;28;20464;-53
2021/04/02 09:14:26;;;;;;;14.47;8.60;;;;;;;;;;5087449;28;20171;-53
2021/04/02 09:16:55;;;;;;;17.60;9.33;;;;;;;;;;5087530;28;20895;-52
2021/04/02 09:19:21;;;;;;;15.63;8.30;;;;;;;;;;5086961;28;20892;-51
2021/04/02 09:21:47;;;;;;;13.43;9.00;;;;;;;;;;5087256;28;20189;-52
2021/04/02 09:24:16;;;;;;;19.50;12.03;;;;;;;;;;5081261;28;20425;-51
2021/04/02 09:26:42;;;;;;;31.65;16.63;;;;;;;;;;5066941;28;20406;-52
2021/04/02 09:29:13;;;;;;;23.77;13.37;;;;;;;;;;5066509;28;20249;-52
2021/04/02 09:31:43;;;;;;;18.20;12.03;;;;;;;;;;5066670;28;20457;-52
2021/04/02 09:34:26;;;;;;;18.50;10.80;;;;;;;;;;5065069;28;20407;-52
2021/04/02 09:36:52;;;;;;;11.57;7.20;;;;;;;;;;5066789;28;20393;-52
2021/04/02 09:39:22;;;;;;;12.50;8.20;;;;;;;;;;5066371;28;20755;-51
2021/04/02 09:41:50;;;;;;;12.03;7.10;;;;;;;;;;5062457;28;20472;-53
2021/04/02 09:44:17;;;;;;;8.77;7.73;;;;;;;;;;5055181;28;20416;-52
2021/04/02 09:46:47;;;;;;;11.87;7.70;;;;;;;;;;5052267;28;20420;-52
2021/04/02 09:49:23;;;;;;;12.30;7.03;;;;;;;;;;5052854;28;20434;-51
2021/04/02 09:51:50;;;;;;;15.30;7.13;;;;;;;;;;5053924;28;20988;-55
2021/04/02 09:54:17;;;;;;;12.03;6.40;;;;;;;;;;5053382;28;20818;-53
2021/04/02 09:56:44;;;;;;;14.00;8.63;;;;;;;;;;5053335;28;20417;-52
2021/04/02 09:59:10;;;;;;;8.57;6.73;;;;;;;;;;5053050;28;20431;-52
2021/04/02 10:01:37;;;;;;;11.33;7.40;;;;;;;;;;5053126;28;20427;-51
2021/04/02 10:04:04;;;;;;;9.53;6.80;;;;;;;;;;5053549;28;20753;-53
2021/04/02 10:06:30;;;;;;;13.07;7.17;;;;;;;;;;5053079;28;20406;-53
2021/04/02 10:08:56;;;;;;;12.90;7.13;;;;;;;;;;5052768;28;20408;-52
2021/04/02 10:11:22;;;;;;;13.20;7.17;;;;;;;;;;5052942;28;20498;-53
2021/04/02 10:13:49;;;;;;;13.07;7.17;;;;;;;;;;5052785;28;20448;-53
2021/04/02 10:16:15;;;;;;;11.33;7.23;;;;;;;;;;5053705;28;20562;-52
2021/04/02 10:18:41;;;;;;;8.27;7.23;;;;;;;;;;5052467;28;20406;-52
2021/04/02 10:21:08;;;;;;;11.07;7.07;;;;;;;;;;5052355;28;20409;-53
2021/04/02 10:23:34;;;;;;;7.10;6.30;;;;;;;;;;5052767;28;20412;-53
2021/04/02 10:26:00;;;;;;;7.43;6.50;;;;;;;;;;5052657;28;20410;-52
2021/04/02 10:28:26;;;;;;;7.83;6.00;;;;;;;;;;5052306;28;20398;-52
2021/04/02 10:30:53;;;;;;;13.27;7.60;;;;;;;;;;5051985;28;20501;-53
2021/04/02 10:33:19;;;;;;;11.85;6.63;;;;;;;;;;5052278;28;20430;-52
2021/04/02 10:35:45;;;;;;;8.77;7.87;;;;;;;;;;5052062;28;20161;-52
2021/04/02 10:38:12;;;;;;;16.63;8.17;;;;;;;;;;5052106;28;20391;-53
2021/04/02 10:40:38;;;;;;;11.77;7.23;;;;;;;;;;5052334;28;20397;-53
2021/04/02 10:43:04;;;;;;;12.20;7.37;;;;;;;;;;5053270;28;20448;-53
2021/04/02 10:45:32;;;;;;;8.77;7.30;;;;;;;;;;5052164;28;20906;-53
2021/04/02 10:47:58;;;;;;;10.40;7.50;;;;;;;;;;5052228;28;20431;-53
2021/04/02 10:50:24;;;;;;;20.50;8.20;;;;;;;;;;5052096;28;21086;-53
2021/04/02 10:52:50;;;;;;;11.57;7.57;;;;;;;;;;5051857;28;20418;-53
2021/04/02 10:55:16;;;;;;;9.10;6.67;;;;;;;;;;5051265;28;20409;-53
2021/04/02 10:57:43;;;;;;;8.93;8.00;;;;;;;;;;5051892;28;20403;-52
2021/04/02 11:00:10;;;;;;;10.00;7.53;;;;;;;;;;5051811;28;20486;-53
2021/04/02 11:02:36;;;;;;;10.20;7.10;;;;;;;;;;5051719;28;20470;-53
2021/04/02 11:05:02;;;;;;;15.93;7.43;;;;;;;;;;5051983;28;20407;-53
2021/04/02 11:07:28;;;;;;;7.83;6.73;;;;;;;;;;5052608;28;20526;-52
2021/04/02 11:09:54;;;;;;;10.47;6.17;;;;;;;;;;5051763;28;20494;-53
2021/04/02 11:12:24;;;;;;;8.80;6.67;;;;;;;;;;5051637;28;20418;-52
2021/04/02 11:14:50;;;;;;;8.80;7.07;;;;;;;;;;5051796;28;20398;-52
2021/04/02 11:17:16;;;;;;;9.67;5.50;;;;;;;;;;5051567;28;20452;-53
2021/04/02 11:19:42;;;;;;;9.10;6.23;;;;;;;;;;5051569;28;20489;-52
2021/04/02 11:22:08;;;;;;;9.70;6.60;;;;;;;;;;5051494;28;20427;-52
2021/04/02 11:24:34;;;;;;;8.20;6.37;;;;;;;;;;5051574;28;20412;-52
2021/04/02 11:27:00;;;;;;;10.93;6.90;;;;;;;;;;5051472;28;20458;-52
2021/04/02 11:29:26;;;;;;;9.73;6.80;;;;;;;;;;5051176;28;20460;-52
2021/04/02 11:31:52;;;;;;;8.07;6.20;;;;;;;;;;5051195;28;20465;-53
2021/04/02 11:34:18;;;;;;;7.53;5.70;;;;;;;;;;5052429;28;20517;-52
2021/04/02 11:36:44;;;;;;;9.90;6.30;;;;;;;;;;5058097;28;20416;-52
2021/04/02 11:39:10;;;;;;;12.30;8.00;;;;;;;;;;5071023;28;20407;-51
2021/04/02 11:41:35;;;;;;;12.97;8.93;;;;;;;;;;5071367;28;20414;-52
2021/04/02 11:44:01;;;;;;;11.60;8.73;;;;;;;;;;5071438;28;20494;-53
2021/04/02 11:46:29;;;;;;;15.57;7.70;;;;;;;;;;5071386;28;20998;-53
2021/04/02 11:48:54;;;;;;;12.20;8.50;;;;;;;;;;5071000;28;20410;-52
2021/04/02 11:51:20;;;;;;;11.57;9.33;;;;;;;;;;5071103;28;20837;-51
2021/04/02 11:53:46;;;;;;;13.17;9.07;;;;;;;;;;5071199;28;20425;-52
2021/04/02 11:56:12;;;;;;;13.80;10.27;;;;;;;;;;5070875;28;20408;-52
2021/04/02 11:58:38;;;;;;;14.67;9.87;;;;;;;;;;5068133;28;20405;-52
2021/04/02 12:01:04;;;;;;;14.43;10.70;;;;;;;;;;5050739;28;20402;-53
2021/04/02 12:03:30;;;;;;;14.10;11.47;;;;;;;;;;5050850;28;20458;-53
2021/04/02 12:05:56;;;;;;;15.10;10.70;;;;;;;;;;5050580;28;20490;-52
2021/04/02 12:08:22;;;;;;;14.00;10.40;;;;;;;;;;5050632;28;20409;-52
2021/04/02 12:10:48;;;;;;;16.33;11.83;;;;;;;;;;5050295;28;20456;-52
2021/04/02 12:13:14;;;;;;;13.77;10.60;;;;;;;;;;5050736;28;20513;-53
2021/04/02 12:15:40;;;;;;;11.47;9.20;;;;;;;;;;5050557;28;20493;-52
2021/04/02 12:18:06;;;;;;;20.00;10.00;;;;;;;;;;5050715;28;20461;-53
2021/04/02 12:20:33;;;;;;;18.77;9.10;;;;;;;;;;5050512;28;20403;-52
2021/04/02 12:22:59;;;;;;;12.87;8.43;;;;;;;;;;5050447;28;20428;-53
2021/04/02 12:25:25;;;;;;;10.67;7.37;;;;;;;;;;5059122;28;20456;-53
2021/04/02 12:27:51;;;;;;;12.10;7.60;;;;;;;;;;5070340;28;20884;-53
2021/04/02 12:30:18;;;;;;;13.80;7.67;;;;;;;;;;5070519;28;20468;-52
2021/04/02 12:32:44;;;;;;;11.13;6.93;;;;;;;;;;5070488;28;20444;-53
2021/04/02 12:35:10;;;;;;;10.07;6.90;;;;;;;;;;5070697;28;20396;-52
2021/04/02 12:37:37;;;;;;;10.30;8.17;;;;;;;;;;5070300;28;20786;-52
2021/04/02 12:40:07;;;;;;;9.30;7.07;;;;;;;;;;5070471;28;20404;-53
2021/04/02 12:42:33;;;;;;;14.57;7.23;;;;;;;;;;5070616;28;20416;-53
2021/04/02 12:44:59;;;;;;;7.13;6.43;;;;;;;;;;5070473;28;20418;-53
2021/04/02 12:47:25;;;;;;;8.50;6.37;;;;;;;;;;5070167;28;20703;-52
2021/04/02 12:49:51;;;;;;;10.03;6.70;;;;;;;;;;5070347;28;20416;-53
2021/04/02 12:52:17;;;;;;;9.13;6.37;;;;;;;;;;5052443;28;20536;-52
2021/04/02 12:54:43;;;;;;;9.50;5.40;;;;;;;;;;5050217;28;20406;-53
2021/04/02 12:57:09;;;;;;;7.67;6.13;;;;;;;;;;5050452;28;20394;-53
2021/04/02 12:59:35;;;;;;;7.80;5.70;;;;;;;;;;5049895;28;20405;-52
2021/04/02 13:02:01;;;;;;;6.20;5.20;;;;;;;;;;5050780;28;21105;-52
2021/04/02 13:04:27;;;;;;;6.80;5.80;;;;;;;;;;5050294;28;20401;-53
2021/04/02 13:06:53;;;;;;;6.37;5.03;;;;;;;;;;5050300;28;20465;-53
2021/04/02 13:09:19;;;;;;;9.20;6.10;;;;;;;;;;5049818;28;20401;-53
2021/04/02 13:11:45;;;;;;;10.60;5.90;;;;;;;;;;5050043;28;20465;-52
2021/04/02 13:14:11;;;;;;;7.80;5.20;;;;;;;;;;5050065;28;20434;-53
2021/04/02 13:16:37;;;;;;;5.63;5.13;;;;;;;;;;5051590;28;20435;-52
2021/04/02 13:19:07;;;;;;;11.27;5.07;;;;;;;;;;5053486;28;20409;-52
2021/04/02 13:21:33;;;;;;;5.90;4.57;;;;;;;;;;5053793;28;20424;-53
2021/04/02 13:24:00;;;;;;;10.13;5.00;;;;;;;;;;5053424;28;20412;-52
2021/04/02 13:26:26;;;;;;;9.90;4.60;;;;;;;;;;5053911;28;20412;-53
2021/04/02 13:28:52;;;;;;;5.43;4.00;;;;;;;;;;5053544;28;20413;-52
2021/04/02 13:31:17;;;;;;;7.87;4.07;;;;;;;;;;5053431;28;20460;-53
2021/04/02 13:33:43;;;;;;;4.10;3.70;;;;;;;;;;5053731;28;20468;-52
2021/04/02 13:36:12;;;;;;;6.73;4.37;;;;;;;;;;5053545;28;20401;-53
2021/04/02 13:38:38;;;;;;;6.47;3.50;;;;;;;;;;5054207;28;20394;-52
2021/04/02 13:41:04;;;;;;;8.33;3.20;;;;;;;;;;5054848;28;20431;-53
2021/04/02 13:43:30;;;;;;;5.10;3.23;;;;;;;;;;5053501;28;20429;-53
2021/04/02 13:45:56;;;;;;;5.40;3.57;;;;;;;;;;5053505;28;20467;-52
2021/04/02 13:48:22;;;;;;;9.03;3.60;;;;;;;;;;5053245;28;20405;-53
2021/04/02 13:50:48;;;;;;;6.33;3.40;;;;;;;;;;5053212;28;20786;-52
2021/04/02 13:53:14;;;;;;;7.40;3.60;;;;;;;;;;5053246;28;20444;-53
2021/04/02 13:55:40;;;;;;;8.50;3.77;;;;;;;;;;5053331;28;20396;-53
2021/04/02 13:58:06;;;;;;;6.83;3.67;;;;;;;;;;5052964;28;20774;-53
2021/04/02 14:00:32;;;;;;;5.30;3.30;;;;;;;;;;5053130;28;20499;-53
2021/04/02 14:02:59;;;;;;;4.57;3.40;;;;;;;;;;5052987;28;20524;-53
2021/04/02 14:05:25;;;;;;;8.27;3.80;;;;;;;;;;5053400;28;21020;-53
2021/04/02 14:07:51;;;;;;;11.30;4.00;;;;;;;;;;5052652;28;20449;-53
2021/04/02 14:10:23;;;;;;;9.80;3.87;;;;;;;;;;5052904;28;20454;-53
2021/04/02 14:12:49;;;;;;;6.83;3.67;;;;;;;;;;5052840;28;20460;-53
2021/04/02 14:15:21;;;;;;;5.67;3.23;;;;;;;;;;5052955;28;20893;-53
2021/04/02 14:17:47;;;;;;;6.40;3.93;;;;;;;;;;5052612;28;20508;-53
2021/04/02 14:20:15;;;;;;;5.10;3.00;;;;;;;;;;5052681;28;20496;-53
2021/04/02 14:22:41;;;;;;;8.23;3.87;;;;;;;;;;5052639;28;20425;-53
2021/04/02 14:25:07;;;;;;;5.63;3.73;;;;;;;;;;5052752;28;20403;-53
2021/04/02 14:27:33;;;;;;;9.13;4.10;;;;;;;;;;5055654;28;20422;-53
2021/04/02 14:29:59;;;;;;;7.93;5.27;;;;;;;;;;5071412;28;20420;-53